Time;durP1;ratioP1;P1;durP2;ratioP2;P2;SDS_P1;SDS_P2;PMS_P1;PMS_P2;Temp;Humidity;BMP_temperature;BMP_pressure;BME280_temperature;BME280_humidity;BME280_pressure;Samples;Min_cycle;Max_cycle;Signal;HPM_P1;HPM_P2
2023/07/02 04:05:28;;;;;;;1.60;1.50;;;16.20;99.90;;;;;;5517954;22;20462;-63
2023/07/02 04:07:54;;;;;;;1.70;1.60;;;16.20;99.90;;;;;;5012758;28;20426;-63
2023/07/02 04:10:20;;;;;;;1.87;1.77;;;16.20;99.90;;;;;;5013281;28;20183;-62
2023/07/02 04:12:45;;;;;;;1.70;1.60;;;16.20;99.90;;;;;;4995514;28;20394;-63
2023/07/02 04:15:11;;;;;;;1.70;1.60;;;16.20;99.90;;;;;;5013458;28;20176;-63
2023/07/02 04:17:36;;;;;;;2.67;2.47;;;16.20;99.90;;;;;;5016648;28;20208;-63
2023/07/02 04:20:06;;;;;;;4.67;2.17;;;16.10;99.90;;;;;;5016651;28;20517;-63
2023/07/02 04:22:32;;;;;;;2.47;1.97;;;16.10;99.90;;;;;;5016497;28;20211;-62
2023/07/02 04:24:57;;;;;;;1.87;1.77;;;16.10;99.90;;;;;;5016297;28;20410;-63
2023/07/02 04:27:23;;;;;;;1.83;1.73;;;16.10;99.90;;;;;;5016364;28;20664;-63
2023/07/02 04:29:49;;;;;;;1.70;1.60;;;16.10;99.90;;;;;;4998877;28;20214;-62
2023/07/02 04:32:14;;;;;;;1.90;1.80;;;16.00;99.90;;;;;;5016489;28;20168;-64
2023/07/02 04:34:41;;;;;;;2.37;2.17;;;16.10;99.90;;;;;;5015421;28;20415;-63
2023/07/02 04:37:08;;;;;;;3.57;3.27;;;16.10;99.90;;;;;;5015648;28;20205;-65
2023/07/02 04:39:34;;;;;;;3.60;1.83;;;16.10;99.90;;;;;;5016137;28;20399;-63
2023/07/02 04:42:00;;;;;;;2.13;2.00;;;16.10;99.90;;;;;;5016168;28;20888;-64
2023/07/02 04:44:31;;;;;;;2.40;2.20;;;16.20;99.90;;;;;;5015772;28;20191;-62
2023/07/02 04:46:58;;;;;;;2.20;2.00;;;16.20;99.90;;;;;;5015946;28;20204;-65
2023/07/02 04:49:24;;;;;;;2.57;2.03;;;16.20;99.90;;;;;;5016026;28;20433;-63
2023/07/02 04:51:50;;;;;;;2.73;2.53;;;16.30;99.90;;;;;;5015957;28;20414;-65
2023/07/02 04:54:15;;;;;;;2.50;2.40;;;16.40;99.90;;;;;;5015591;28;20401;-63
2023/07/02 04:56:41;;;;;;;2.80;2.53;;;16.50;99.90;;;;;;5015924;28;20683;-66
2023/07/02 04:59:06;;;;;;;1.70;1.60;;;16.50;99.90;;;;;;4990298;28;20173;-63
2023/07/02 05:01:32;;;;;;;1.77;1.67;;;16.60;99.90;;;;;;4996044;28;20693;-62
2023/07/02 05:03:58;;;;;;;2.30;2.10;;;16.60;99.90;;;;;;4995766;28;20520;-63
2023/07/02 05:06:23;;;;;;;1.50;1.40;;;16.70;99.90;;;;;;4996061;28;20229;-62
2023/07/02 05:08:49;;;;;;;2.93;2.30;;;16.80;99.90;;;;;;4978583;28;20246;-63
2023/07/02 05:11:14;;;;;;;1.57;1.47;;;16.90;99.90;;;;;;4995997;28;20252;-66
2023/07/02 05:13:40;;;;;;;1.93;1.70;;;17.10;99.90;;;;;;4995780;28;20172;-62
2023/07/02 05:16:05;;;;;;;3.03;1.67;;;17.30;99.90;;;;;;4995676;28;20206;-61
2023/07/02 05:18:31;;;;;;;2.17;2.03;;;17.50;99.90;;;;;;4995928;28;20177;-64
2023/07/02 05:20:56;;;;;;;2.40;1.80;;;17.60;99.90;;;;;;4996164;28;20233;-63
2023/07/02 05:23:22;;;;;;;2.70;2.50;;;17.80;99.90;;;;;;4996341;28;20174;-62
2023/07/02 05:25:48;;;;;;;2.10;1.70;;;18.00;99.90;;;;;;4995433;28;20526;-61
2023/07/02 05:28:13;;;;;;;1.77;1.67;;;18.10;99.90;;;;;;4996017;28;20164;-63
2023/07/02 05:30:39;;;;;;;2.57;2.37;;;18.20;99.90;;;;;;4995628;28;20566;-62
2023/07/02 05:33:04;;;;;;;1.73;1.63;;;18.30;99.90;;;;;;4978071;28;20234;-63
2023/07/02 05:35:30;;;;;;;1.70;1.60;;;18.30;99.90;;;;;;4995090;28;20198;-65
2023/07/02 05:37:56;;;;;;;1.07;1.00;;;18.30;99.90;;;;;;4997375;28;20192;-61
2023/07/02 05:40:21;;;;;;;1.80;1.70;;;18.30;99.90;;;;;;4997876;28;20164;-65
2023/07/02 05:42:47;;;;;;;2.30;1.47;;;18.40;99.90;;;;;;4997910;28;20183;-66
2023/07/02 05:45:12;;;;;;;1.90;1.70;;;18.40;99.90;;;;;;4998057;28;20189;-62
2023/07/02 05:47:38;;;;;;;2.07;1.90;;;18.40;99.90;;;;;;4997785;28;20178;-63
2023/07/02 05:50:05;;;;;;;2.30;1.97;;;18.40;99.90;;;;;;4997787;28;20172;-65
2023/07/02 05:52:30;;;;;;;1.80;1.70;;;18.40;99.90;;;;;;4996130;28;20163;-63
2023/07/02 05:54:56;;;;;;;2.03;1.93;;;18.50;99.90;;;;;;4994950;28;20924;-64
2023/07/02 05:57:21;;;;;;;1.80;1.70;;;18.60;99.90;;;;;;4995231;28;20211;-63
2023/07/02 05:59:47;;;;;;;1.80;1.70;;;18.60;99.90;;;;;;4977544;28;20179;-66
2023/07/02 06:02:13;;;;;;;1.40;1.30;;;18.70;99.90;;;;;;4977609;28;20175;-65
2023/07/02 06:04:38;;;;;;;3.13;2.13;;;18.90;99.90;;;;;;4994663;28;20203;-65
2023/07/02 06:07:04;;;;;;;1.60;1.50;;;19.10;99.90;;;;;;4994677;28;20222;-67
2023/07/02 06:09:29;;;;;;;2.00;1.83;;;19.30;99.90;;;;;;4995076;28;20195;-66
2023/07/02 06:11:55;;;;;;;2.73;2.53;;;19.40;99.90;;;;;;4994948;28;20171;-67
2023/07/02 06:14:21;;;;;;;1.80;1.60;;;19.50;99.90;;;;;;4994580;28;20187;-65
2023/07/02 06:16:47;;;;;;;4.70;2.43;;;19.70;99.90;;;;;;4994607;28;20242;-67
2023/07/02 06:19:12;;;;;;;4.63;1.63;;;19.90;99.90;;;;;;4994567;28;20410;-66
2023/07/02 06:21:38;;;;;;;2.50;2.30;;;20.00;99.90;;;;;;4977418;28;20176;-66
2023/07/02 06:24:04;;;;;;;3.10;2.37;;;20.10;99.90;;;;;;4994200;28;20171;-66
2023/07/02 06:26:31;;;;;;;1.83;1.57;;;20.20;99.90;;;;;;4994393;28;20250;-65
2023/07/02 06:28:58;;;;;;;1.73;1.63;;;20.30;99.90;;;;;;4994642;28;20523;-66
2023/07/02 06:31:23;;;;;;;1.90;1.70;;;20.50;99.90;;;;;;4994639;28;20433;-66
2023/07/02 06:33:49;;;;;;;2.73;2.10;;;20.70;99.90;;;;;;4994045;28;20901;-66
2023/07/02 06:36:15;;;;;;;2.80;2.60;;;20.90;99.90;;;;;;4994301;28;20195;-65
2023/07/02 06:38:40;;;;;;;3.60;2.50;;;21.00;99.90;;;;;;4993980;28;20168;-67
2023/07/02 06:41:06;;;;;;;2.33;2.00;;;21.20;99.90;;;;;;4977114;28;20180;-65
2023/07/02 06:43:32;;;;;;;3.90;2.50;;;21.30;99.90;;;;;;4993818;28;20219;-67
2023/07/02 06:45:57;;;;;;;2.57;2.37;;;21.50;99.90;;;;;;4976712;28;20195;-64
2023/07/02 06:48:23;;;;;;;3.13;2.87;;;21.70;99.90;;;;;;4994061;28;20602;-65
2023/07/02 06:50:48;;;;;;;3.57;2.80;;;21.70;99.90;;;;;;4994193;28;20185;-64
2023/07/02 06:53:14;;;;;;;2.67;2.40;;;21.80;99.90;;;;;;4976454;28;20604;-65
2023/07/02 06:55:39;;;;;;;3.00;1.93;;;21.90;99.90;;;;;;4994119;28;20206;-65
2023/07/02 06:58:07;;;;;;;4.13;2.40;;;21.90;99.90;;;;;;4993653;28;20223;-63
2023/07/02 07:00:35;;;;;;;3.00;2.70;;;21.90;99.90;;;;;;4994143;28;20425;-63
2023/07/02 07:03:02;;;;;;;2.73;2.40;;;22.00;99.90;;;;;;4993932;28;20502;-63
2023/07/02 07:05:32;;;;;;;2.97;2.73;;;21.90;99.90;;;;;;4975998;28;20500;-63
2023/07/02 07:07:58;;;;;;;3.80;2.80;;;21.90;99.90;;;;;;4999149;28;20836;-63
2023/07/02 07:10:24;;;;;;;4.37;2.30;;;21.70;99.90;;;;;;4994014;28;20381;-63
2023/07/02 07:12:50;;;;;;;3.77;2.47;;;21.60;99.90;;;;;;4999684;28;20754;-62
2023/07/02 07:15:15;;;;;;;4.17;2.63;;;21.70;99.90;;;;;;5013250;28;20229;-64
2023/07/02 07:17:41;;;;;;;4.40;2.97;;;21.80;99.90;;;;;;5013405;28;20202;-63
2023/07/02 07:20:07;;;;;;;2.97;2.67;;;22.00;99.90;;;;;;5013838;28;20171;-63
2023/07/02 07:22:34;;;;;;;3.07;2.73;;;22.20;99.90;;;;;;5013595;28;20178;-64
2023/07/02 07:24:59;;;;;;;2.93;2.07;;;22.30;99.80;;;;;;5013112;28;20388;-66
2023/07/02 07:27:25;;;;;;;3.77;3.47;;;22.30;99.90;;;;;;5013598;28;20405;-60
2023/07/02 07:29:50;;;;;;;6.20;2.50;;;22.40;99.60;;;;;;5012979;28;20179;-60
2023/07/02 07:32:16;;;;;;;3.33;3.00;;;22.50;99.80;;;;;;4993864;28;20695;-60
2023/07/02 07:34:42;;;;;;;3.30;3.00;;;22.40;99.10;;;;;;5013001;28;20182;-59
2023/07/02 07:37:08;;;;;;;3.67;3.10;;;22.20;98.60;;;;;;5013347;28;20439;-58
2023/07/02 07:39:33;;;;;;;4.43;3.60;;;22.30;98.50;;;;;;5013161;28;20171;-61
2023/07/02 07:41:59;;;;;;;5.00;3.00;;;22.20;98.60;;;;;;4995707;28;20188;-64
2023/07/02 07:44:28;;;;;;;3.50;3.00;;;22.20;98.90;;;;;;4993244;28;20314;-67
2023/07/02 07:46:55;;;;;;;4.00;3.60;;;22.30;99.20;;;;;;4993428;28;20330;-62
2023/07/02 07:49:22;;;;;;;4.03;3.40;;;22.60;99.10;;;;;;4994524;28;20393;-62
2023/07/02 07:51:47;;;;;;;4.87;4.37;;;22.90;98.80;;;;;;4997121;28;20977;-68
2023/07/02 07:54:13;;;;;;;3.30;2.67;;;23.30;97.70;;;;;;4979390;28;20400;-62
2023/07/02 07:56:39;;;;;;;4.57;3.90;;;23.70;97.40;;;;;;4996955;28;20686;-67
2023/07/02 07:59:04;;;;;;;6.50;4.47;;;24.10;95.40;;;;;;5009237;28;20185;-60
2023/07/02 08:01:30;;;;;;;4.67;4.17;;;24.10;93.80;;;;;;5016015;28;20186;-64
2023/07/02 08:03:56;;;;;;;4.60;3.53;;;24.40;94.10;;;;;;5016218;28;20175;-64
2023/07/02 08:06:21;;;;;;;7.47;4.07;;;25.00;93.40;;;;;;5011442;28;20213;-65
2023/07/02 08:08:47;;;;;;;5.13;4.30;;;25.60;92.10;;;;;;5010326;28;20416;-66
2023/07/02 08:11:13;;;;;;;8.37;4.10;;;26.60;91.30;;;;;;5016067;28;20179;-69
2023/07/02 08:13:38;;;;;;;6.43;4.60;;;27.60;90.00;;;;;;5016245;28;20487;-66
2023/07/02 08:16:04;;;;;;;6.57;4.20;;;28.30;86.40;;;;;;5012501;28;20293;-63
2023/07/02 08:18:30;;;;;;;5.30;4.10;;;28.30;82.80;;;;;;5004057;28;20183;-65
2023/07/02 08:20:55;;;;;;;5.33;4.67;;;28.30;84.20;;;;;;5001066;28;20553;-65
2023/07/02 08:23:21;;;;;;;7.17;4.70;;;28.30;83.00;;;;;;4996184;28;20242;-66
2023/07/02 08:25:46;;;;;;;6.10;4.50;;;28.00;83.20;;;;;;5007368;28;20310;-63
2023/07/02 08:28:12;;;;;;;5.90;4.30;;;27.90;83.20;;;;;;5001779;28;20285;-62
2023/07/02 08:30:38;;;;;;;6.13;4.20;;;27.70;83.40;;;;;;5016159;28;20179;-66
2023/07/02 08:33:03;;;;;;;6.03;4.60;;;27.80;82.70;;;;;;5004631;28;20234;-65
2023/07/02 08:35:29;;;;;;;4.57;3.60;;;27.80;81.50;;;;;;5015258;28;20194;-66
2023/07/02 08:37:55;;;;;;;5.47;4.50;;;27.70;82.10;;;;;;5015166;28;20210;-64
2023/07/02 08:40:20;;;;;;;8.27;4.57;;;27.80;81.80;;;;;;5015471;28;20593;-66
2023/07/02 08:42:47;;;;;;;5.53;4.40;;;27.90;80.30;;;;;;5014988;28;20691;-62
2023/07/02 08:45:18;;;;;;;7.10;5.70;;;28.50;79.50;;;;;;5014952;28;20179;-66
2023/07/02 08:47:45;;;;;;;6.43;5.00;;;29.20;78.20;;;;;;5015510;28;20411;-63
2023/07/02 08:50:12;;;;;;;4.80;4.23;;;30.10;76.40;;;;;;5015445;28;20414;-65
2023/07/02 08:52:38;;;;;;;5.37;4.87;;;30.40;76.10;;;;;;5011050;28;20427;-62
2023/07/02 08:55:05;;;;;;;5.93;5.10;;;30.50;73.50;;;;;;4995499;28;20476;-66
2023/07/02 08:57:30;;;;;;;5.07;4.53;;;30.30;73.90;;;;;;4996197;28;20211;-61
2023/07/02 08:59:56;;;;;;;6.37;4.87;;;30.70;71.40;;;;;;4996196;28;20434;-66
2023/07/02 09:02:33;;;;;;;5.03;4.30;;;31.50;69.00;;;;;;4995255;28;20175;-64
2023/07/02 09:05:00;;;;;;;6.90;6.23;;;32.20;66.30;;;;;;4995706;28;20193;-63
2023/07/02 09:07:26;;;;;;;5.20;4.67;;;32.90;62.80;;;;;;4995937;28;20435;-65
2023/07/02 09:09:51;;;;;;;6.73;6.10;;;33.40;60.30;;;;;;4996178;28;20430;-64
2023/07/02 09:12:32;;;;;;;5.50;5.00;;;33.60;59.10;;;;;;4996056;28;20171;-66
2023/07/02 09:15:03;;;;;;;6.13;5.10;;;33.50;58.50;;;;;;4995732;28;20196;-64
2023/07/02 09:17:33;;;;;;;5.27;4.77;;;33.30;57.90;;;;;;4995933;28;20475;-64
2023/07/02 09:20:01;;;;;;;4.53;4.10;;;32.90;57.60;;;;;;4995598;28;20413;-66
2023/07/02 09:22:27;;;;;;;6.83;5.70;;;33.00;58.50;;;;;;4995547;28;20893;-62
2023/07/02 09:24:54;;;;;;;7.40;5.00;;;33.50;57.90;;;;;;4995604;28;20474;-65
2023/07/02 09:27:20;;;;;;;5.80;4.90;;;33.80;56.90;;;;;;4995598;28;20469;-62
2023/07/02 09:29:54;;;;;;;5.93;5.40;;;33.70;57.20;;;;;;4995924;28;20418;-62
2023/07/02 09:32:26;;;;;;;5.23;4.57;;;33.90;57.70;;;;;;5000332;28;20412;-65
2023/07/02 09:34:53;;;;;;;6.20;5.60;;;33.60;56.50;;;;;;5006309;28;20421;-62
2023/07/02 09:37:19;;;;;;;4.47;4.07;;;33.00;58.40;;;;;;5014919;28;20462;-62
2023/07/02 09:39:50;;;;;;;5.13;4.63;;;32.70;58.50;;;;;;5015010;28;20751;-64
2023/07/02 09:42:19;;;;;;;4.80;4.17;;;32.50;58.00;;;;;;5015291;28;20181;-63
2023/07/02 09:44:46;;;;;;;6.23;5.27;;;32.30;58.50;;;;;;5014547;28;20462;-62
2023/07/02 09:47:12;;;;;;;5.20;4.70;;;32.10;59.20;;;;;;5003269;28;20551;-63
2023/07/02 09:49:48;;;;;;;3.77;3.43;;;32.50;58.90;;;;;;4995295;28;20773;-62
2023/07/02 09:52:15;;;;;;;6.47;5.20;;;32.50;57.60;;;;;;4995478;28;20402;-64
2023/07/02 09:54:41;;;;;;;4.93;4.50;;;32.10;58.60;;;;;;4994810;28;20761;-63
2023/07/02 09:57:07;;;;;;;5.67;5.07;;;32.40;59.80;;;;;;4996213;28;20513;-63
2023/07/02 09:59:33;;;;;;;4.40;4.00;;;32.70;58.90;;;;;;5005782;28;20931;-65
2023/07/02 10:01:58;;;;;;;4.97;4.10;;;33.00;59.10;;;;;;4995255;28;20183;-65
2023/07/02 10:04:24;;;;;;;5.57;4.17;;;33.70;58.00;;;;;;5006217;28;20656;-63
2023/07/02 10:06:55;;;;;;;5.47;5.00;;;34.50;56.10;;;;;;5014071;28;20191;-66
2023/07/02 10:09:34;;;;;;;5.30;4.87;;;34.50;55.20;;;;;;5014830;28;20186;-63
2023/07/02 10:12:00;;;;;;;4.77;4.37;;;34.30;56.20;;;;;;5008085;28;20426;-63
2023/07/02 10:14:25;;;;;;;6.20;5.20;;;34.20;56.00;;;;;;4993729;28;20399;-60
2023/07/02 10:16:53;;;;;;;4.93;4.43;;;34.10;55.50;;;;;;5002488;28;20190;-63
2023/07/02 10:19:19;;;;;;;5.63;4.50;;;33.50;55.10;;;;;;5014456;28;20226;-62
2023/07/02 10:21:50;;;;;;;5.77;5.13;;;33.20;55.70;;;;;;5014413;28;20384;-65
2023/07/02 10:24:17;;;;;;;6.07;5.47;;;33.00;56.60;;;;;;5013751;28;20720;-61
2023/07/02 10:27:00;;;;;;;7.37;5.23;;;33.00;56.30;;;;;;5014065;28;20544;-62
2023/07/02 10:29:28;;;;;;;5.70;5.10;;;32.90;56.80;;;;;;4985597;28;20769;-61
2023/07/02 10:31:56;;;;;;;5.97;3.97;;;32.90;57.50;;;;;;4995749;28;20414;-66
2023/07/02 10:34:32;;;;;;;5.50;4.97;;;33.10;56.30;;;;;;5013601;28;20433;-61
2023/07/02 10:36:59;;;;;;;6.40;4.37;;;33.20;56.40;;;;;;5002534;28;20819;-66
2023/07/02 10:39:26;;;;;;;5.50;5.00;;;32.70;55.60;;;;;;4994169;28;20434;-62
2023/07/02 10:41:52;;;;;;;7.07;4.60;;;32.30;57.40;;;;;;4994906;28;20436;-65
2023/07/02 10:44:17;;;;;;;7.13;4.53;;;31.80;57.30;;;;;;4996774;28;20853;-68
2023/07/02 10:46:47;;;;;;;6.50;5.03;;;31.50;58.50;;;;;;5011982;28;20297;-68
2023/07/02 10:49:14;;;;;;;5.70;5.10;;;31.40;58.20;;;;;;5013842;28;20167;-68
2023/07/02 10:51:40;;;;;;;7.20;5.53;;;31.20;59.30;;;;;;4997461;28;20525;-65
2023/07/02 10:54:05;;;;;;;5.30;4.80;;;31.20;59.20;;;;;;4994179;28;20509;-65
2023/07/02 10:56:32;;;;;;;5.83;5.07;;;31.30;59.40;;;;;;5005578;28;20226;-66
2023/07/02 10:58:58;;;;;;;5.80;5.10;;;31.70;59.00;;;;;;5009538;28;20266;-65
2023/07/02 11:01:31;;;;;;;4.87;4.40;;;31.90;58.30;;;;;;5007299;28;20526;-69
2023/07/02 11:04:01;;;;;;;5.00;4.50;;;32.30;58.40;;;;;;5003914;28;20761;-64
2023/07/02 11:06:28;;;;;;;5.93;5.10;;;32.50;58.00;;;;;;5006575;28;20861;-62
2023/07/02 11:08:57;;;;;;;5.10;4.60;;;32.60;57.30;;;;;;4998010;28;20179;-67
2023/07/02 11:11:23;;;;;;;5.83;5.10;;;33.10;57.30;;;;;;4993971;28;20502;-70
2023/07/02 11:13:50;;;;;;;5.63;4.97;;;33.20;56.80;;;;;;4993612;28;20774;-69
2023/07/02 11:16:28;;;;;;;6.73;4.80;;;33.20;55.10;;;;;;4994412;28;20457;-68
2023/07/02 11:19:05;;;;;;;9.00;4.60;;;32.50;57.10;;;;;;5012946;28;20400;-73
2023/07/02 11:21:31;;;;;;;8.60;5.50;;;31.70;58.00;;;;;;4980428;28;20961;-62
2023/07/02 11:24:10;;;;;;;5.87;5.27;;;30.80;57.80;;;;;;5003516;28;20423;-62
2023/07/02 11:26:40;;;;;;;9.57;4.63;;;29.80;59.60;;;;;;4999620;28;20202;-63
2023/07/02 11:29:17;;;;;;;6.03;4.47;;;29.10;61.10;;;;;;5013175;28;20799;-65
2023/07/02 11:31:43;;;;;;;6.87;5.40;;;28.50;62.90;;;;;;5012975;28;20927;-64
2023/07/02 11:34:17;;;;;;;4.60;4.20;;;28.10;61.70;;;;;;5016813;28;20421;-61
2023/07/02 11:36:43;;;;;;;6.33;4.73;;;27.90;63.20;;;;;;5016356;28;20445;-65
2023/07/02 11:39:09;;;;;;;6.90;4.97;;;27.80;64.20;;;;;;5016733;28;20380;-62
2023/07/02 11:41:42;;;;;;;5.60;3.90;;;27.70;63.10;;;;;;5017070;28;20756;-63
2023/07/02 11:44:08;;;;;;;5.97;4.30;;;27.60;64.00;;;;;;5015938;28;20202;-62
2023/07/02 11:46:34;;;;;;;6.03;4.57;;;27.50;62.90;;;;;;5016594;28;20464;-60
2023/07/02 11:49:08;;;;;;;7.60;4.37;;;27.30;63.70;;;;;;5016811;28;20171;-61
2023/07/02 11:51:37;;;;;;;4.77;4.07;;;27.00;64.10;;;;;;5017019;28;20463;-67
2023/07/02 11:54:04;;;;;;;4.90;3.97;;;26.90;65.50;;;;;;5016405;28;20376;-67
2023/07/02 11:56:30;;;;;;;7.80;4.27;;;26.80;65.80;;;;;;5016829;28;20520;-67
2023/07/02 11:58:55;;;;;;;8.47;5.30;;;26.80;65.20;;;;;;5006036;28;20850;-61
2023/07/02 12:01:21;;;;;;;7.33;5.00;;;26.80;65.30;;;;;;4997186;28;20900;-60
2023/07/02 12:03:47;;;;;;;4.50;3.40;;;26.70;67.00;;;;;;4997112;28;20205;-65
2023/07/02 12:06:12;;;;;;;6.50;4.30;;;26.50;67.30;;;;;;4979645;28;20234;-61
2023/07/02 12:08:38;;;;;;;5.13;4.00;;;26.40;67.00;;;;;;4996693;28;20225;-66
2023/07/02 12:11:03;;;;;;;5.90;4.77;;;26.30;66.60;;;;;;4997049;28;20179;-62
2023/07/02 12:13:29;;;;;;;5.90;4.73;;;26.30;68.40;;;;;;5005107;28;20235;-66
2023/07/02 12:15:55;;;;;;;3.57;3.27;;;26.40;68.40;;;;;;5016253;28;20686;-60
2023/07/02 12:18:20;;;;;;;6.37;5.30;;;26.50;66.10;;;;;;5016462;28;20189;-66
2023/07/02 12:20:46;;;;;;;6.00;4.43;;;26.40;68.80;;;;;;5016414;28;20223;-62
2023/07/02 12:23:11;;;;;;;6.80;4.63;;;26.30;69.50;;;;;;5016010;28;20562;-62
2023/07/02 12:25:37;;;;;;;4.20;3.80;;;26.30;69.20;;;;;;5016256;28;20734;-62
2023/07/02 12:28:04;;;;;;;6.47;4.40;;;26.30;67.20;;;;;;5008444;28;20679;-61
2023/07/02 12:30:30;;;;;;;6.43;5.03;;;26.30;67.50;;;;;;4996485;28;20405;-65
2023/07/02 12:32:56;;;;;;;6.23;3.87;;;26.40;68.20;;;;;;4996474;28;20414;-63
2023/07/02 12:35:22;;;;;;;5.20;4.50;;;26.40;69.60;;;;;;4995436;28;20403;-66
2023/07/02 12:37:49;;;;;;;4.10;3.70;;;26.40;67.10;;;;;;4995978;28;20640;-60
2023/07/02 12:40:15;;;;;;;7.40;4.97;;;26.40;66.20;;;;;;4996469;28;20662;-63
2023/07/02 12:42:42;;;;;;;4.30;3.60;;;26.40;65.60;;;;;;5002427;28;20386;-60
2023/07/02 12:45:08;;;;;;;5.00;4.07;;;26.40;65.10;;;;;;5015310;28;20175;-61
2023/07/02 12:47:34;;;;;;;4.73;4.20;;;26.40;65.80;;;;;;5015719;28;20461;-60
2023/07/02 12:50:00;;;;;;;7.17;5.00;;;26.30;66.60;;;;;;5015996;28;20378;-64
2023/07/02 12:52:25;;;;;;;5.13;4.10;;;26.30;67.40;;;;;;5015822;28;20642;-62
2023/07/02 12:54:51;;;;;;;4.17;3.77;;;26.40;66.90;;;;;;5015334;28;20505;-61
2023/07/02 12:57:17;;;;;;;7.73;4.43;;;26.40;67.50;;;;;;5010512;28;20278;-61
2023/07/02 12:59:43;;;;;;;5.80;4.17;;;26.40;65.50;;;;;;4978929;28;20233;-62
2023/07/02 13:02:10;;;;;;;6.00;4.83;;;26.30;63.70;;;;;;4996314;28;20454;-64
2023/07/02 13:04:35;;;;;;;4.77;3.57;;;26.30;65.50;;;;;;4995774;28;20711;-61
2023/07/02 13:07:01;;;;;;;8.43;5.63;;;26.30;65.90;;;;;;4995904;28;20570;-65
2023/07/02 13:09:26;;;;;;;5.70;5.10;;;26.30;65.40;;;;;;4996307;28;20724;-64
2023/07/02 13:11:52;;;;;;;5.70;4.97;;;26.30;65.30;;;;;;5013627;28;20645;-66
2023/07/02 13:14:17;;;;;;;5.30;4.60;;;26.40;67.50;;;;;;5015315;28;20217;-60
2023/07/02 13:16:43;;;;;;;6.83;4.60;;;26.40;64.10;;;;;;5015550;28;20278;-65
2023/07/02 13:19:09;;;;;;;9.53;4.70;;;26.50;62.80;;;;;;5015251;28;20183;-60
2023/07/02 13:21:34;;;;;;;6.73;4.83;;;26.40;62.40;;;;;;5015355;28;20288;-65
2023/07/02 13:24:00;;;;;;;5.47;3.93;;;26.40;64.00;;;;;;4997432;28;20183;-65
2023/07/02 13:26:26;;;;;;;9.30;4.77;;;26.40;64.50;;;;;;5015957;28;20211;-63
2023/07/02 13:28:51;;;;;;;6.20;4.53;;;26.50;63.80;;;;;;5005934;28;20638;-61
2023/07/02 13:31:17;;;;;;;5.77;4.17;;;26.60;62.90;;;;;;4995796;28;20403;-63
2023/07/02 13:33:43;;;;;;;4.53;3.93;;;26.60;63.00;;;;;;4995413;28;20208;-62
2023/07/02 13:36:09;;;;;;;5.73;4.40;;;26.70;63.50;;;;;;4995526;28;20198;-64
2023/07/02 13:38:34;;;;;;;6.50;4.87;;;26.70;62.10;;;;;;4995686;28;20179;-67
2023/07/02 13:41:00;;;;;;;3.70;3.20;;;26.70;65.80;;;;;;4997718;28;20582;-61
2023/07/02 13:43:26;;;;;;;5.00;4.37;;;26.60;63.20;;;;;;5014314;28;20178;-65
2023/07/02 13:45:51;;;;;;;8.00;5.10;;;26.50;60.50;;;;;;5014932;28;20203;-59
2023/07/02 13:48:17;;;;;;;4.80;4.00;;;26.60;62.40;;;;;;5014744;28;20413;-64
2023/07/02 13:50:43;;;;;;;4.47;3.37;;;26.60;62.30;;;;;;5014697;28;20171;-63
2023/07/02 13:53:09;;;;;;;7.60;5.80;;;26.50;61.60;;;;;;5014874;28;20696;-61
2023/07/02 13:55:34;;;;;;;6.67;4.43;;;26.30;61.60;;;;;;5006965;28;20287;-62
2023/07/02 13:58:00;;;;;;;7.93;5.30;;;26.30;63.00;;;;;;4995159;28;20411;-63
2023/07/02 14:00:27;;;;;;;5.97;4.70;;;26.20;62.90;;;;;;4977677;28;20635;-65
2023/07/02 14:02:53;;;;;;;4.80;4.07;;;26.20;64.10;;;;;;4995199;28;20226;-60
2023/07/02 14:05:19;;;;;;;6.23;4.70;;;26.10;62.30;;;;;;4994637;28;20787;-61
2023/07/02 14:07:45;;;;;;;4.47;4.00;;;26.20;61.90;;;;;;4994805;28;20457;-62
2023/07/02 14:10:12;;;;;;;6.20;4.63;;;26.10;64.10;;;;;;5000485;28;20747;-64
2023/07/02 14:12:38;;;;;;;5.07;4.57;;;26.00;65.20;;;;;;5014679;28;20397;-63
2023/07/02 14:15:04;;;;;;;5.33;4.60;;;26.10;64.20;;;;;;5014154;28;20493;-67
2023/07/02 14:17:30;;;;;;;5.23;4.03;;;26.10;63.80;;;;;;5014437;28;20914;-60
2023/07/02 14:19:55;;;;;;;5.50;4.23;;;26.10;63.90;;;;;;5014402;28;20392;-65
2023/07/02 14:22:21;;;;;;;4.43;4.00;;;26.20;63.10;;;;;;5014444;28;20197;-61
2023/07/02 14:24:46;;;;;;;4.27;2.93;;;26.20;61.90;;;;;;5008549;28;20187;-62
2023/07/02 14:27:12;;;;;;;4.90;4.30;;;26.30;61.50;;;;;;4994466;28;20206;-65
2023/07/02 14:29:38;;;;;;;6.53;5.17;;;26.30;63.10;;;;;;4994833;28;20172;-62
2023/07/02 14:32:04;;;;;;;6.37;4.33;;;26.30;63.50;;;;;;4994803;28;20507;-66
2023/07/02 14:34:29;;;;;;;6.53;4.47;;;26.30;62.40;;;;;;4993983;28;20172;-63
2023/07/02 14:36:56;;;;;;;6.23;4.60;;;26.20;62.30;;;;;;4994500;28;20997;-63
2023/07/02 14:39:22;;;;;;;4.60;3.60;;;26.20;61.90;;;;;;4997757;28;20572;-66
2023/07/02 14:41:48;;;;;;;6.03;4.00;;;26.10;63.30;;;;;;5014199;28;20475;-63
2023/07/02 14:44:14;;;;;;;5.23;4.00;;;26.20;61.90;;;;;;5013452;28;20175;-66
2023/07/02 14:46:40;;;;;;;7.57;4.60;;;26.20;62.00;;;;;;5013911;28;20459;-65
2023/07/02 14:49:05;;;;;;;6.27;4.93;;;26.20;61.20;;;;;;5013969;28;20377;-65
2023/07/02 14:51:31;;;;;;;3.90;3.13;;;26.10;60.60;;;;;;4996436;28;20200;-64
2023/07/02 14:53:57;;;;;;;8.50;4.53;;;26.10;61.30;;;;;;5011091;28;20188;-61
2023/07/02 14:56:22;;;;;;;5.43;4.80;;;26.00;61.20;;;;;;4994031;28;20700;-60
2023/07/02 14:58:48;;;;;;;5.10;4.00;;;26.00;63.00;;;;;;4993756;28;20501;-62
2023/07/02 15:01:14;;;;;;;6.23;4.83;;;26.00;63.60;;;;;;4994105;28;20184;-62
2023/07/02 15:03:40;;;;;;;5.50;4.30;;;26.00;62.80;;;;;;4993889;28;20187;-67
2023/07/02 15:06:08;;;;;;;5.60;5.00;;;26.00;63.40;;;;;;4994168;28;20435;-63
2023/07/02 15:08:33;;;;;;;4.33;3.90;;;26.00;62.00;;;;;;5009205;28;20213;-65
2023/07/02 15:11:00;;;;;;;6.40;4.30;;;25.90;62.20;;;;;;5013720;28;20474;-61
2023/07/02 15:13:25;;;;;;;8.67;5.70;;;25.90;62.90;;;;;;5013095;28;20334;-65
2023/07/02 15:15:51;;;;;;;6.00;4.17;;;25.80;63.00;;;;;;5013799;28;20971;-61
2023/07/02 15:18:17;;;;;;;4.80;4.10;;;25.80;62.90;;;;;;5013650;28;20167;-65
2023/07/02 15:20:44;;;;;;;4.50;3.43;;;25.60;63.20;;;;;;5013773;28;20733;-62
2023/07/02 15:23:10;;;;;;;4.60;3.50;;;25.60;63.90;;;;;;4998879;28;20225;-63
2023/07/02 15:25:36;;;;;;;4.63;4.17;;;25.50;64.40;;;;;;4993669;28;20442;-63
2023/07/02 15:28:02;;;;;;;6.33;4.70;;;25.50;66.00;;;;;;4993775;28;20480;-65
2023/07/02 15:30:28;;;;;;;5.00;4.03;;;25.50;62.50;;;;;;4994073;28;20171;-63
2023/07/02 15:32:53;;;;;;;8.13;4.77;;;25.50;62.80;;;;;;4993960;28;20396;-66
2023/07/02 15:35:19;;;;;;;4.07;3.57;;;25.50;62.90;;;;;;4993363;28;20426;-62
2023/07/02 15:37:44;;;;;;;7.20;3.63;;;25.50;63.80;;;;;;5006595;28;20186;-60
2023/07/02 15:40:10;;;;;;;5.37;4.30;;;25.50;64.00;;;;;;4995983;28;20175;-65
2023/07/02 15:42:36;;;;;;;7.30;4.27;;;25.50;63.20;;;;;;5013478;28;20178;-62
2023/07/02 15:45:02;;;;;;;5.50;3.97;;;25.60;62.90;;;;;;5012864;28;20414;-62
2023/07/02 15:47:28;;;;;;;5.30;4.27;;;25.50;62.50;;;;;;4995559;28;20540;-63
2023/07/02 15:49:54;;;;;;;5.73;5.17;;;25.50;64.10;;;;;;5013558;28;20491;-62
2023/07/02 15:52:20;;;;;;;6.50;4.13;;;25.50;65.40;;;;;;5001348;28;20263;-61
2023/07/02 15:54:45;;;;;;;6.50;4.63;;;25.50;65.40;;;;;;4993622;28;20175;-65
2023/07/02 15:57:11;;;;;;;4.77;4.10;;;25.50;64.80;;;;;;4993918;28;20435;-63
2023/07/02 15:59:37;;;;;;;5.93;4.40;;;25.50;63.80;;;;;;4993978;28;20176;-66
2023/07/02 16:02:04;;;;;;;5.50;4.20;;;25.50;64.10;;;;;;4993895;28;20184;-67
2023/07/02 16:04:29;;;;;;;7.77;4.20;;;25.50;63.70;;;;;;4976037;28;20180;-65
2023/07/02 16:06:55;;;;;;;6.10;4.10;;;25.50;64.20;;;;;;4993297;28;20828;-65
2023/07/02 16:09:21;;;;;;;4.23;3.87;;;25.40;63.50;;;;;;4993899;28;20172;-61
2023/07/02 16:11:47;;;;;;;7.40;4.70;;;25.40;64.90;;;;;;4996747;28;20174;-62
2023/07/02 16:14:17;;;;;;;7.33;5.40;;;25.40;64.20;;;;;;4996834;28;20430;-61
2023/07/02 16:16:45;;;;;;;6.30;3.80;;;25.40;63.40;;;;;;4997146;28;20439;-65
2023/07/02 16:19:12;;;;;;;6.37;3.70;;;25.30;63.70;;;;;;4997509;28;20431;-60
2023/07/02 16:21:40;;;;;;;4.20;3.53;;;25.20;64.20;;;;;;5005593;28;20425;-64
2023/07/02 16:24:17;;;;;;;6.07;4.57;;;25.20;64.60;;;;;;4998639;28;20436;-60
2023/07/02 16:26:43;;;;;;;5.63;3.93;;;25.20;65.90;;;;;;5016436;28;20460;-66
2023/07/02 16:29:09;;;;;;;4.70;4.23;;;25.20;65.10;;;;;;5016562;28;20440;-65
2023/07/02 16:31:35;;;;;;;5.63;5.07;;;25.30;65.10;;;;;;5016514;28;20402;-64
2023/07/02 16:34:02;;;;;;;5.40;3.63;;;25.30;64.70;;;;;;5015053;28;20183;-65
2023/07/02 16:36:28;;;;;;;6.30;4.20;;;25.30;64.10;;;;;;4997215;28;21019;-65
2023/07/02 16:38:53;;;;;;;6.80;4.37;;;25.30;64.00;;;;;;4997075;28;20389;-61
2023/07/02 16:41:19;;;;;;;5.20;4.13;;;25.40;64.10;;;;;;4996935;28;20172;-61
2023/07/02 16:43:45;;;;;;;6.40;4.27;;;25.30;64.30;;;;;;4996392;28;20174;-64
2023/07/02 16:46:10;;;;;;;4.97;4.17;;;25.30;64.80;;;;;;4996563;28;20191;-63
2023/07/02 16:48:36;;;;;;;4.93;4.37;;;25.30;64.30;;;;;;4996698;28;20174;-65